createdAt,value
2018-07-17T00:01:11.861Z,0.00
2018-07-17T00:02:11.793Z,0.00
2018-07-17T00:04:04.982Z,0.00
2018-07-17T00:05:04.942Z,0.00
2018-07-17T00:06:57.937Z,0.00
2018-07-17T00:07:57.906Z,0.00
2018-07-17T00:09:51.170Z,0.00
2018-07-17T00:10:51.021Z,0.00
2018-07-17T00:12:44.076Z,0.00
2018-07-17T00:13:44.028Z,0.00
2018-07-17T00:15:37.048Z,0.00
2018-07-17T00:16:36.983Z,0.00
2018-07-17T00:18:29.793Z,0.00
2018-07-17T00:19:29.768Z,0.00
2018-07-17T00:21:22.668Z,0.00
2018-07-17T00:22:22.633Z,0.00
2018-07-17T00:24:15.662Z,0.00
2018-07-17T00:25:15.626Z,0.00
2018-07-17T00:27:08.406Z,0.00
2018-07-17T00:28:08.382Z,0.00
2018-07-17T00:30:01.220Z,0.00
2018-07-17T00:31:01.159Z,0.00
2018-07-17T00:32:54.168Z,0.00
2018-07-17T00:33:54.134Z,0.00
2018-07-17T00:35:47.147Z,0.00
2018-07-17T00:36:47.094Z,0.00
2018-07-17T00:38:40.358Z,0.00
2018-07-17T00:39:40.219Z,0.00
2018-07-17T00:41:33.263Z,0.00
2018-07-17T00:42:33.197Z,0.00
2018-07-17T00:44:26.198Z,0.00
2018-07-17T00:45:26.173Z,0.00
2018-07-17T00:47:19.010Z,0.00
2018-07-17T00:48:18.950Z,0.00
2018-07-17T00:50:12.059Z,0.00
2018-07-17T00:51:11.999Z,0.00
2018-07-17T00:53:05.012Z,0.00
2018-07-17T00:54:04.973Z,0.00
2018-07-17T00:55:57.839Z,0.00
2018-07-17T00:56:57.782Z,0.00
2018-07-17T00:58:50.779Z,0.00
2018-07-17T00:59:50.753Z,0.00
2018-07-17T01:01:43.600Z,0.00
2018-07-17T01:02:43.530Z,0.00
2018-07-17T01:04:36.528Z,0.00
2018-07-17T01:05:36.500Z,0.00
2018-07-17T01:07:29.341Z,0.00
2018-07-17T01:08:29.284Z,0.00
2018-07-17T01:10:22.308Z,0.00
2018-07-17T01:11:22.263Z,0.00
2018-07-17T01:13:15.285Z,0.00
2018-07-17T01:14:15.226Z,0.00
2018-07-17T01:16:08.391Z,0.00
2018-07-17T01:17:08.341Z,0.00
2018-07-17T01:19:01.351Z,0.00
2018-07-17T01:20:01.308Z,0.00
2018-07-17T01:21:54.140Z,0.00
2018-07-17T01:22:54.090Z,0.00
2018-07-17T01:24:47.220Z,0.00
2018-07-17T01:25:47.217Z,0.00
2018-07-17T01:27:40.205Z,0.00
2018-07-17T01:28:40.160Z,0.00
2018-07-17T01:30:33.582Z,0.00
2018-07-17T01:31:33.121Z,0.00
2018-07-17T01:33:26.161Z,0.00
2018-07-17T01:34:26.127Z,0.00
2018-07-17T01:36:19.111Z,0.00
2018-07-17T01:37:19.085Z,0.00
2018-07-17T01:39:12.350Z,0.00
2018-07-17T01:40:12.211Z,0.00
2018-07-17T01:42:05.205Z,0.00
2018-07-17T01:43:05.293Z,0.00
2018-07-17T01:44:58.202Z,0.00
2018-07-17T01:45:58.135Z,0.00
2018-07-17T01:47:51.171Z,0.00
2018-07-17T01:48:50.985Z,0.00
2018-07-17T01:50:43.995Z,0.00
2018-07-17T01:51:43.955Z,0.00
2018-07-17T01:53:36.967Z,0.00
2018-07-17T01:54:36.922Z,0.00
2018-07-17T01:56:29.804Z,0.00
2018-07-17T01:57:29.780Z,0.00
2018-07-17T01:59:22.715Z,0.00
2018-07-17T02:00:22.581Z,0.00
2018-07-17T02:02:15.390Z,0.00
2018-07-17T02:03:15.387Z,0.00
2018-07-17T02:05:08.376Z,0.00
2018-07-17T02:06:08.342Z,0.00
2018-07-17T02:08:01.546Z,0.00
2018-07-17T02:09:01.446Z,0.00
2018-07-17T02:10:54.447Z,0.00
2018-07-17T02:11:54.405Z,0.00
2018-07-17T02:13:47.221Z,0.00
2018-07-17T02:14:47.181Z,0.00
2018-07-17T02:16:40.350Z,0.00
2018-07-17T02:17:40.257Z,0.00
2018-07-17T02:19:33.268Z,0.00
2018-07-17T02:20:33.222Z,0.00
2018-07-17T02:22:26.238Z,0.00
2018-07-17T02:23:26.194Z,0.00
2018-07-17T02:25:19.091Z,0.00
2018-07-17T02:26:19.038Z,0.00
2018-07-17T02:28:12.067Z,0.00
2018-07-17T02:29:11.997Z,0.00
2018-07-17T02:31:05.042Z,0.00
2018-07-17T02:32:04.984Z,0.00
2018-07-17T02:33:58.276Z,0.00
2018-07-17T02:34:58.258Z,0.00
2018-07-17T02:36:51.277Z,0.00
2018-07-17T02:37:51.226Z,0.00
2018-07-17T02:39:44.128Z,0.00
2018-07-17T02:40:44.087Z,0.00
2018-07-17T02:42:37.107Z,0.00
2018-07-17T02:43:37.061Z,0.00
2018-07-17T02:45:30.177Z,0.00
2018-07-17T02:46:30.128Z,0.00
2018-07-17T02:48:23.559Z,0.00
2018-07-17T02:49:22.914Z,0.00
2018-07-17T02:51:15.739Z,0.00
2018-07-17T02:52:15.714Z,0.00
2018-07-17T02:54:09.041Z,0.00
2018-07-17T02:55:08.989Z,0.00
2018-07-17T02:57:01.882Z,0.00
2018-07-17T02:58:01.831Z,0.00
2018-07-17T02:59:54.826Z,0.00
2018-07-17T03:00:54.803Z,0.00
2018-07-17T03:02:47.840Z,0.00
2018-07-17T03:03:47.788Z,0.00
2018-07-17T03:05:40.740Z,0.00
2018-07-17T03:06:40.711Z,0.00
2018-07-17T03:08:33.867Z,0.00
2018-07-17T03:09:33.839Z,4.00
2018-07-17T03:11:26.874Z,4.00
2018-07-17T03:12:26.847Z,0.00
2018-07-17T03:14:19.879Z,4.00
2018-07-17T03:15:19.811Z,4.00
2018-07-17T03:17:12.657Z,4.00
2018-07-17T03:18:12.604Z,8.00
2018-07-17T03:20:05.429Z,8.00
2018-07-17T03:21:05.394Z,8.00
2018-07-17T03:22:58.583Z,12.00
2018-07-17T03:23:58.493Z,12.00
2018-07-17T03:25:51.325Z,16.00
2018-07-17T03:26:51.274Z,20.00
2018-07-17T03:28:44.285Z,20.00
2018-07-17T03:29:44.230Z,28.00
2018-07-17T03:31:37.056Z,32.00
2018-07-17T03:32:37.028Z,36.00
2018-07-17T03:34:29.860Z,40.00
2018-07-17T03:35:29.815Z,48.00
2018-07-17T03:37:22.800Z,56.00
2018-07-17T03:38:22.775Z,60.00
2018-07-17T03:40:15.824Z,72.00
2018-07-17T03:41:15.780Z,72.00
2018-07-17T03:43:08.923Z,84.00
2018-07-17T03:44:08.885Z,92.00
2018-07-17T03:46:01.922Z,104.00
2018-07-17T03:47:01.859Z,116.00
2018-07-17T03:48:54.670Z,132.00
2018-07-17T03:49:54.646Z,144.00
2018-07-17T03:51:47.811Z,156.00
2018-07-17T03:52:47.718Z,164.00
2018-07-17T03:54:40.574Z,172.00
2018-07-17T03:55:40.517Z,184.00
2018-07-17T03:57:33.552Z,204.00
2018-07-17T03:58:33.546Z,212.00
2018-07-17T04:00:26.676Z,232.00
2018-07-17T04:01:26.626Z,244.00
2018-07-17T04:03:19.636Z,268.00
2018-07-17T04:04:19.666Z,280.00
2018-07-17T04:06:12.738Z,312.00
2018-07-17T04:07:12.685Z,332.00
2018-07-17T04:09:05.667Z,360.00
2018-07-17T04:10:05.632Z,376.00
2018-07-17T04:11:58.470Z,404.00
2018-07-17T04:12:58.420Z,412.00
2018-07-17T04:14:51.421Z,440.00
2018-07-17T04:15:51.396Z,456.00
2018-07-17T04:17:44.406Z,480.00
2018-07-17T04:18:44.357Z,488.00
2018-07-17T04:20:37.369Z,504.00
2018-07-17T04:21:37.355Z,516.00
2018-07-17T04:23:30.146Z,540.00
2018-07-17T04:24:30.109Z,552.00
2018-07-17T04:26:22.966Z,584.00
2018-07-17T04:27:22.916Z,600.00
2018-07-17T04:29:15.902Z,632.00
2018-07-17T04:30:15.872Z,640.00
2018-07-17T04:32:08.902Z,672.00
2018-07-17T04:33:08.905Z,684.00
2018-07-17T04:35:02.772Z,712.00
2018-07-17T04:36:01.968Z,728.00
2018-07-17T04:37:55.004Z,764.00
2018-07-17T04:38:54.936Z,780.00
2018-07-17T04:40:47.944Z,808.00
2018-07-17T04:41:47.907Z,820.00
2018-07-17T04:43:40.750Z,848.00
2018-07-17T04:44:40.697Z,856.00
2018-07-17T04:46:33.722Z,884.00
2018-07-17T04:47:33.668Z,900.00
2018-07-17T04:49:26.652Z,936.00
2018-07-17T04:50:26.614Z,956.00
2018-07-17T04:52:19.808Z,996.00
2018-07-17T04:53:19.740Z,1008.00
2018-07-17T04:55:12.775Z,1040.00
2018-07-17T04:56:12.737Z,1056.00
2018-07-17T04:58:05.938Z,1080.00
2018-07-17T04:59:05.837Z,1084.00
2018-07-17T05:00:58.843Z,1100.00
2018-07-17T05:01:58.866Z,1116.00
2018-07-17T05:03:51.815Z,1172.00
2018-07-17T05:04:51.747Z,1196.00
2018-07-17T05:06:44.928Z,1260.00
2018-07-17T05:07:44.832Z,1296.00
2018-07-17T05:09:37.872Z,1324.00
2018-07-17T05:10:37.839Z,1324.00
2018-07-17T05:12:30.964Z,1312.00
2018-07-17T05:13:30.928Z,1304.00
2018-07-17T05:15:23.937Z,1316.00
2018-07-17T05:16:23.919Z,1332.00
2018-07-17T05:18:16.917Z,1368.00
2018-07-17T05:19:16.873Z,1408.00
2018-07-17T05:21:10.025Z,1512.00
2018-07-17T05:22:09.969Z,1556.00
2018-07-17T05:24:02.782Z,1600.00
2018-07-17T05:25:02.759Z,1608.00
2018-07-17T05:26:55.765Z,1588.00
2018-07-17T05:27:55.769Z,1568.00
2018-07-17T05:29:48.539Z,1532.00
2018-07-17T05:30:48.493Z,1512.00
2018-07-17T05:32:41.836Z,1476.00
2018-07-17T05:33:41.841Z,1472.00
2018-07-17T05:35:35.117Z,1488.00
2018-07-17T05:36:34.972Z,1492.00
2018-07-17T05:38:27.908Z,1500.00
2018-07-17T05:39:27.883Z,1516.00
2018-07-17T05:41:20.893Z,1604.00
2018-07-17T05:42:20.866Z,1664.00
2018-07-17T05:44:13.664Z,1808.00
2018-07-17T05:45:13.637Z,1920.00
2018-07-17T05:47:06.652Z,2184.00
2018-07-17T05:48:06.604Z,2384.00
2018-07-17T05:49:59.624Z,2688.00
2018-07-17T05:50:59.583Z,2812.00
2018-07-17T05:52:52.741Z,2928.00
2018-07-17T05:53:52.691Z,2940.00
2018-07-17T05:55:45.717Z,2964.00
2018-07-17T05:56:45.672Z,2956.00
2018-07-17T05:58:38.662Z,2956.00
2018-07-17T05:59:38.622Z,2964.00
2018-07-17T06:01:31.477Z,2852.00
2018-07-17T06:02:31.414Z,2732.00
2018-07-17T06:04:24.414Z,2456.00
2018-07-17T06:05:24.384Z,2332.00
2018-07-17T06:07:17.407Z,2128.00
2018-07-17T06:08:17.369Z,2016.00
2018-07-17T06:10:10.301Z,1796.00
2018-07-17T06:11:10.233Z,1716.00
2018-07-17T06:13:03.280Z,1684.00
2018-07-17T06:14:03.236Z,1716.00
2018-07-17T06:15:56.240Z,1852.00
2018-07-17T06:16:56.207Z,1940.00
2018-07-17T06:18:49.164Z,2076.00
2018-07-17T06:19:49.103Z,2104.00
2018-07-17T06:21:42.119Z,2152.00
2018-07-17T06:22:42.084Z,2184.00
2018-07-17T06:24:35.094Z,2256.00
2018-07-17T06:25:35.061Z,2304.00
2018-07-17T06:27:27.959Z,2420.00
2018-07-17T06:28:27.882Z,2492.00
2018-07-17T06:30:21.077Z,2572.00
2018-07-17T06:31:21.050Z,2564.00
2018-07-17T06:33:14.092Z,2536.00
2018-07-17T06:34:14.046Z,2532.00
2018-07-17T06:36:07.083Z,2520.00
2018-07-17T06:37:07.050Z,2496.00
2018-07-17T06:39:00.082Z,2464.00
2018-07-17T06:40:00.032Z,2472.00
2018-07-17T06:41:53.279Z,2564.00
2018-07-17T06:42:53.169Z,2640.00
2018-07-17T06:44:46.139Z,2780.00
2018-07-17T06:45:45.974Z,2848.00
2018-07-17T06:47:39.982Z,2972.00
2018-07-17T06:48:39.928Z,3060.00
2018-07-17T06:50:33.260Z,3204.00
2018-07-17T06:51:33.075Z,3248.00
2018-07-17T06:53:26.118Z,3204.00
2018-07-17T06:54:26.082Z,3156.00
2018-07-17T06:56:19.252Z,3100.00
2018-07-17T06:57:19.229Z,3084.00
2018-07-17T06:59:12.207Z,3116.00
2018-07-17T07:00:12.178Z,3136.00
2018-07-17T07:02:05.180Z,3144.00
2018-07-17T07:03:05.149Z,3192.00
2018-07-17T07:04:58.234Z,3284.00
2018-07-17T07:05:58.177Z,3276.00
2018-07-17T07:07:51.187Z,3204.00
2018-07-17T07:08:51.148Z,3216.00
2018-07-17T07:10:44.331Z,3292.00
2018-07-17T07:11:44.275Z,3308.00
2018-07-17T07:13:37.276Z,3524.00
2018-07-17T07:14:37.258Z,3640.00
2018-07-17T07:16:30.082Z,3612.00
2018-07-17T07:17:30.091Z,3512.00
2018-07-17T07:19:23.295Z,3344.00
2018-07-17T07:20:23.219Z,3316.00
2018-07-17T07:22:16.213Z,3528.00
2018-07-17T07:23:16.209Z,3668.00
2018-07-17T07:25:09.467Z,3560.00
2018-07-17T07:26:09.313Z,3420.00
2018-07-17T07:28:02.325Z,3252.00
2018-07-17T07:29:02.280Z,3172.00
2018-07-17T07:30:55.350Z,3016.00
2018-07-17T07:31:55.266Z,3012.00
2018-07-17T07:33:48.128Z,2992.00
2018-07-17T07:34:48.102Z,2912.00
2018-07-17T07:36:41.118Z,3036.00
2018-07-17T07:37:41.063Z,3136.00
2018-07-17T07:39:34.055Z,3568.00
2018-07-17T07:40:34.033Z,3808.00
2018-07-17T07:42:27.258Z,3932.00
2018-07-17T07:43:27.145Z,3888.00
2018-07-17T07:45:20.193Z,4120.00
2018-07-17T07:46:20.139Z,4436.00
2018-07-17T07:48:13.274Z,4896.00
2018-07-17T07:49:13.328Z,5004.00
2018-07-17T07:51:06.270Z,4884.00
2018-07-17T07:52:06.220Z,4836.00
2018-07-17T07:53:59.249Z,4928.00
2018-07-17T07:54:59.208Z,5064.00
2018-07-17T07:56:52.319Z,5120.00
2018-07-17T07:57:52.260Z,5216.00
2018-07-17T07:59:45.270Z,5224.00
2018-07-17T08:00:45.239Z,5200.00
2018-07-17T08:02:38.515Z,5068.00
2018-07-17T08:03:38.423Z,5092.00
2018-07-17T08:05:31.360Z,5084.00
2018-07-17T08:06:31.338Z,5032.00
2018-07-17T08:08:24.189Z,5108.00
2018-07-17T08:09:24.139Z,5024.00
2018-07-17T08:11:17.059Z,4960.00
2018-07-17T08:12:17.056Z,4972.00
2018-07-17T08:14:09.821Z,5164.00
2018-07-17T08:15:09.780Z,5156.00
2018-07-17T08:17:02.825Z,4912.00
2018-07-17T08:18:02.771Z,4808.00
2018-07-17T08:19:55.771Z,4492.00
2018-07-17T08:20:55.740Z,4500.00
2018-07-17T08:22:48.600Z,4728.00
2018-07-17T08:23:48.545Z,4896.00
2018-07-17T08:25:41.538Z,5284.00
2018-07-17T08:26:41.511Z,5456.00
2018-07-17T08:28:34.536Z,5460.00
2018-07-17T08:29:34.494Z,5464.00
2018-07-17T08:31:27.693Z,5796.00
2018-07-17T08:32:27.665Z,5944.00
2018-07-17T08:34:20.700Z,6484.00
2018-07-17T08:35:20.655Z,6808.00
2018-07-17T08:37:13.934Z,7308.00
2018-07-17T08:38:13.784Z,7280.00
2018-07-17T08:40:06.830Z,6716.00
2018-07-17T08:41:06.787Z,6380.00
2018-07-17T08:42:59.815Z,5740.00
2018-07-17T08:43:59.787Z,5348.00
2018-07-17T08:45:52.624Z,4584.00
2018-07-17T08:46:52.586Z,4460.00
2018-07-17T08:48:45.590Z,4364.00
2018-07-17T08:49:45.552Z,4268.00
2018-07-17T08:51:38.590Z,4132.00
2018-07-17T08:52:38.550Z,4208.00
2018-07-17T08:54:31.512Z,4576.00
2018-07-17T08:55:31.449Z,4928.00
2018-07-17T08:57:24.308Z,5472.00
2018-07-17T08:58:24.254Z,5744.00
2018-07-17T09:00:17.317Z,5964.00
2018-07-17T09:01:17.270Z,5888.00
2018-07-17T09:03:10.512Z,5772.00
2018-07-17T09:04:10.399Z,5716.00
2018-07-17T09:06:03.535Z,5664.00
2018-07-17T09:07:03.376Z,5616.00
2018-07-17T09:08:56.386Z,5536.00
2018-07-17T09:09:56.349Z,5528.00
2018-07-17T09:11:49.175Z,5568.00
2018-07-17T09:12:49.157Z,5556.00
2018-07-17T09:14:42.022Z,5472.00
2018-07-17T09:15:41.953Z,5376.00
2018-07-17T09:17:34.941Z,5152.00
2018-07-17T09:18:34.978Z,5076.00
2018-07-17T09:20:28.207Z,5044.00
2018-07-17T09:21:28.091Z,5072.00
2018-07-17T09:23:21.053Z,5204.00
2018-07-17T09:24:21.024Z,5252.00
2018-07-17T09:26:14.071Z,5348.00
2018-07-17T09:27:14.014Z,5384.00
2018-07-17T09:29:07.008Z,5320.00
2018-07-17T09:30:06.867Z,5284.00
2018-07-17T09:31:59.716Z,5252.00
2018-07-17T09:32:59.679Z,5196.00
2018-07-17T09:34:52.727Z,5188.00
2018-07-17T09:35:52.753Z,5204.00
2018-07-17T09:37:45.897Z,5348.00
2018-07-17T09:38:45.798Z,5492.00
2018-07-17T09:40:38.808Z,5688.00
2018-07-17T09:41:38.760Z,5740.00
2018-07-17T09:43:31.792Z,5944.00
2018-07-17T09:44:31.759Z,6340.00
2018-07-17T09:46:24.856Z,7572.00
2018-07-17T09:47:24.784Z,7960.00
2018-07-17T09:49:17.784Z,7960.00
2018-07-17T09:50:17.813Z,8116.00
2018-07-17T09:52:10.602Z,7528.00
2018-07-17T09:53:10.548Z,7376.00
2018-07-17T09:55:03.385Z,7520.00
2018-07-17T09:56:03.361Z,7468.00
2018-07-17T09:57:56.383Z,7360.00
2018-07-17T09:58:56.326Z,7276.00
2018-07-17T10:00:49.360Z,8224.00
2018-07-17T10:01:49.328Z,9308.00
2018-07-17T10:03:42.489Z,38368.00
2018-07-17T10:04:42.531Z,34464.00
2018-07-17T10:06:35.481Z,8900.00
2018-07-17T10:07:35.454Z,10428.00
2018-07-17T10:09:28.738Z,10468.00
2018-07-17T10:10:28.576Z,11788.00
2018-07-17T10:12:21.602Z,38912.00
2018-07-17T10:13:21.554Z,33472.00
2018-07-17T10:15:14.573Z,34848.00
2018-07-17T10:16:14.556Z,34752.00
2018-07-17T10:18:07.399Z,11692.00
2018-07-17T10:19:07.349Z,31424.00
2018-07-17T10:21:00.379Z,32576.00
2018-07-17T10:22:00.338Z,21152.00
2018-07-17T10:23:53.375Z,20512.00
2018-07-17T10:24:53.344Z,17984.00
2018-07-17T10:26:46.327Z,25568.00
2018-07-17T10:27:46.183Z,28640.00
2018-07-17T10:29:39.231Z,25600.00
2018-07-17T10:30:39.200Z,27136.00
2018-07-17T10:32:32.051Z,25728.00
2018-07-17T10:33:32.032Z,25248.00
2018-07-17T10:35:25.384Z,24480.00
2018-07-17T10:36:25.375Z,23968.00
2018-07-17T10:38:18.466Z,23776.00
2018-07-17T10:39:18.406Z,23808.00
2018-07-17T10:41:11.286Z,23328.00
2018-07-17T10:42:11.262Z,22976.00
2018-07-17T10:44:04.320Z,22336.00
2018-07-17T10:45:04.270Z,22240.00
2018-07-17T10:46:57.318Z,21440.00
2018-07-17T10:47:57.284Z,21472.00
2018-07-17T10:49:50.215Z,21504.00
2018-07-17T10:50:50.209Z,21376.00
2018-07-17T10:52:43.532Z,21568.00
2018-07-17T10:53:43.497Z,21472.00
2018-07-17T10:55:36.390Z,22208.00
2018-07-17T10:56:36.362Z,22336.00
2018-07-17T10:58:29.442Z,21408.00
2018-07-17T10:59:29.414Z,21408.00
2018-07-17T11:01:22.432Z,21792.00
2018-07-17T11:02:22.428Z,22560.00
2018-07-17T11:04:15.425Z,16100.00
2018-07-17T11:05:15.283Z,22720.00
2018-07-17T11:07:08.338Z,10100.00
2018-07-17T11:08:08.321Z,11140.00
2018-07-17T11:10:01.359Z,14008.00
2018-07-17T11:11:01.335Z,13164.00
2018-07-17T11:12:54.360Z,16896.00
2018-07-17T11:13:54.354Z,14724.00
2018-07-17T11:15:47.386Z,23616.00
2018-07-17T11:16:47.365Z,22208.00
2018-07-17T11:18:40.536Z,19392.00
2018-07-17T11:19:40.467Z,22208.00
2018-07-17T11:21:33.498Z,15772.00
2018-07-17T11:22:33.542Z,14292.00
2018-07-17T11:24:26.361Z,18208.00
2018-07-17T11:25:26.317Z,14912.00
2018-07-17T11:27:19.202Z,12056.00
2018-07-17T11:28:19.192Z,17184.00
2018-07-17T11:30:12.220Z,18560.00
2018-07-17T11:31:12.178Z,20320.00
2018-07-17T11:33:05.242Z,21024.00
2018-07-17T11:34:05.194Z,20736.00
2018-07-17T11:35:58.090Z,15780.00
2018-07-17T11:36:58.058Z,12684.00
2018-07-17T11:38:51.252Z,19008.00
2018-07-17T11:39:51.081Z,18720.00
2018-07-17T11:41:44.137Z,18592.00
2018-07-17T11:42:44.079Z,18528.00
2018-07-17T11:44:36.954Z,18208.00
2018-07-17T11:45:36.931Z,18016.00
2018-07-17T11:47:29.974Z,11552.00
2018-07-17T11:48:29.942Z,11580.00
2018-07-17T11:50:22.963Z,17984.00
2018-07-17T11:51:22.939Z,15784.00
2018-07-17T11:53:16.027Z,19936.00
2018-07-17T11:54:15.958Z,20224.00
2018-07-17T11:56:09.449Z,18208.00
2018-07-17T11:57:09.384Z,19552.00
2018-07-17T11:59:02.470Z,20512.00
2018-07-17T12:00:02.410Z,15452.00
2018-07-17T12:01:55.488Z,10568.00
2018-07-17T12:02:55.426Z,9980.00
2018-07-17T12:04:48.512Z,19328.00
2018-07-17T12:05:48.503Z,18944.00
2018-07-17T12:07:41.515Z,9620.00
2018-07-17T12:08:41.513Z,9200.00
2018-07-17T12:10:34.692Z,9388.00
2018-07-17T12:11:34.687Z,9012.00
2018-07-17T12:13:27.774Z,8468.00
2018-07-17T12:14:27.733Z,9712.00
2018-07-17T12:16:20.863Z,12644.00
2018-07-17T12:17:20.714Z,11012.00
2018-07-17T12:19:13.587Z,8688.00
2018-07-17T12:20:13.638Z,8804.00
2018-07-17T12:22:06.650Z,9172.00
2018-07-17T12:23:06.602Z,9432.00
2018-07-17T12:24:59.436Z,11112.00
2018-07-17T12:25:59.417Z,18752.00
2018-07-17T12:27:52.541Z,20896.00
2018-07-17T12:28:52.405Z,19712.00
2018-07-17T12:30:45.273Z,12952.00
2018-07-17T12:31:45.214Z,12752.00
2018-07-17T12:33:38.235Z,9816.00
2018-07-17T12:34:38.189Z,8308.00
2018-07-17T12:36:31.092Z,7704.00
2018-07-17T12:37:31.000Z,7804.00
2018-07-17T12:39:24.043Z,8832.00
2018-07-17T12:40:24.010Z,8792.00
2018-07-17T12:42:16.858Z,11724.00
2018-07-17T12:43:16.829Z,9648.00
2018-07-17T12:45:10.059Z,9784.00
2018-07-17T12:46:09.959Z,9820.00
2018-07-17T12:48:02.974Z,11432.00
2018-07-17T12:49:02.963Z,11720.00
2018-07-17T12:50:55.819Z,8532.00
2018-07-17T12:51:55.778Z,7336.00
2018-07-17T12:53:48.929Z,6584.00
2018-07-17T12:54:48.905Z,6540.00
2018-07-17T12:56:42.375Z,6024.00
2018-07-17T12:57:41.896Z,5700.00
2018-07-17T12:59:35.174Z,5584.00
2018-07-17T13:00:35.045Z,5864.00
2018-07-17T13:02:28.092Z,6536.00
2018-07-17T13:03:28.036Z,6708.00
2018-07-17T13:05:21.049Z,7228.00
2018-07-17T13:06:21.036Z,7284.00
2018-07-17T13:08:14.056Z,6540.00
2018-07-17T13:09:14.073Z,6000.00
2018-07-17T13:11:07.051Z,6828.00
2018-07-17T13:12:07.020Z,5944.00
2018-07-17T13:14:00.191Z,5748.00
2018-07-17T13:15:00.144Z,5952.00
2018-07-17T13:16:53.165Z,6016.00
2018-07-17T13:17:53.127Z,6156.00
2018-07-17T13:19:46.130Z,5984.00
2018-07-17T13:20:46.111Z,5960.00
2018-07-17T13:22:38.968Z,6160.00
2018-07-17T13:23:38.973Z,6668.00
2018-07-17T13:25:32.111Z,8740.00
2018-07-17T13:26:32.082Z,10004.00
2018-07-17T13:28:25.319Z,13840.00
2018-07-17T13:29:25.205Z,9724.00
2018-07-17T13:31:18.066Z,7984.00
2018-07-17T13:32:18.031Z,8636.00
2018-07-17T13:34:11.047Z,7500.00
2018-07-17T13:35:11.010Z,7548.00
2018-07-17T13:37:04.241Z,7920.00
2018-07-17T13:38:04.180Z,8320.00
2018-07-17T13:39:57.201Z,7508.00
2018-07-17T13:40:57.206Z,7456.00
2018-07-17T13:42:50.357Z,7192.00
2018-07-17T13:43:50.416Z,6872.00
2018-07-17T13:45:43.346Z,12380.00
2018-07-17T13:46:43.294Z,10616.00
2018-07-17T13:48:36.335Z,11768.00
2018-07-17T13:49:36.290Z,7972.00
2018-07-17T13:51:29.133Z,8272.00
2018-07-17T13:52:29.098Z,8568.00
2018-07-17T13:54:22.123Z,9620.00
2018-07-17T13:55:22.099Z,9224.00
2018-07-17T13:57:15.088Z,12628.00
2018-07-17T13:58:15.063Z,12372.00
2018-07-17T14:00:08.080Z,6444.00
2018-07-17T14:01:07.882Z,6248.00
2018-07-17T14:03:00.726Z,6208.00
2018-07-17T14:04:00.691Z,6292.00
2018-07-17T14:05:53.714Z,5640.00
2018-07-17T14:06:53.843Z,5536.00
2018-07-17T14:08:47.036Z,5604.00
2018-07-17T14:09:47.008Z,6368.00
2018-07-17T14:11:40.028Z,6840.00
2018-07-17T14:12:40.042Z,10460.00
2018-07-17T14:14:32.855Z,13236.00
2018-07-17T14:15:32.815Z,10652.00
2018-07-17T14:17:25.672Z,13376.00
2018-07-17T14:18:25.619Z,12420.00
2018-07-17T14:20:18.652Z,6924.00
2018-07-17T14:21:18.625Z,11320.00
2018-07-17T14:23:11.630Z,10752.00
2018-07-17T14:24:11.607Z,9892.00
2018-07-17T14:26:04.515Z,6132.00
2018-07-17T14:27:04.473Z,7744.00
2018-07-17T14:28:57.500Z,6372.00
2018-07-17T14:29:57.465Z,6200.00
2018-07-17T14:31:50.338Z,6140.00
2018-07-17T14:32:50.292Z,6072.00
2018-07-17T14:34:43.117Z,9520.00
2018-07-17T14:35:43.115Z,7264.00
2018-07-17T14:37:35.940Z,11880.00
2018-07-17T14:38:35.925Z,9380.00
2018-07-17T14:40:28.908Z,11884.00
2018-07-17T14:41:28.926Z,10660.00
2018-07-17T14:43:21.920Z,7628.00
2018-07-17T14:44:21.880Z,10732.00
2018-07-17T14:46:15.055Z,5916.00
2018-07-17T14:47:15.027Z,5284.00
2018-07-17T14:49:08.039Z,4852.00
2018-07-17T14:50:08.008Z,5024.00
2018-07-17T14:52:00.901Z,5644.00
2018-07-17T14:53:00.820Z,6092.00
2018-07-17T14:54:53.844Z,6684.00
2018-07-17T14:55:53.808Z,6464.00
2018-07-17T14:57:46.843Z,6264.00
2018-07-17T14:58:46.818Z,7324.00
2018-07-17T15:00:39.939Z,5204.00
2018-07-17T15:01:39.905Z,5016.00
2018-07-17T15:03:32.964Z,4760.00
2018-07-17T15:04:32.925Z,4728.00
2018-07-17T15:06:25.771Z,5244.00
2018-07-17T15:07:25.804Z,5464.00
2018-07-17T15:09:18.937Z,5944.00
2018-07-17T15:10:18.865Z,5892.00
2018-07-17T15:12:11.715Z,5948.00
2018-07-17T15:13:11.691Z,6028.00
2018-07-17T15:15:04.700Z,9328.00
2018-07-17T15:16:04.681Z,10600.00
2018-07-17T15:17:57.542Z,9844.00
2018-07-17T15:18:57.494Z,9224.00
2018-07-17T15:20:50.544Z,6012.00
2018-07-17T15:21:50.524Z,4760.00
2018-07-17T15:23:43.561Z,4640.00
2018-07-17T15:24:43.509Z,4456.00
2018-07-17T15:26:36.686Z,4052.00
2018-07-17T15:27:36.643Z,3748.00
2018-07-17T15:29:29.682Z,3100.00
2018-07-17T15:30:29.632Z,2876.00
2018-07-17T15:32:22.916Z,2720.00
2018-07-17T15:33:22.726Z,2876.00
2018-07-17T15:35:15.807Z,3056.00
2018-07-17T15:36:15.725Z,3096.00
2018-07-17T15:38:08.759Z,3076.00
2018-07-17T15:39:08.712Z,2804.00
2018-07-17T15:41:01.546Z,2392.00
2018-07-17T15:42:01.549Z,2348.00
2018-07-17T15:43:54.662Z,2316.00
2018-07-17T15:44:54.613Z,2416.00
2018-07-17T15:46:47.838Z,2832.00
2018-07-17T15:47:47.806Z,2948.00
2018-07-17T15:49:40.839Z,7728.00
2018-07-17T15:50:40.821Z,6768.00
2018-07-17T15:52:33.823Z,3984.00
2018-07-17T15:53:33.782Z,3964.00
2018-07-17T15:55:26.710Z,8668.00
2018-07-17T15:56:26.642Z,9124.00
2018-07-17T15:58:19.682Z,9516.00
2018-07-17T15:59:19.655Z,4376.00
2018-07-17T16:01:12.456Z,4244.00
2018-07-17T16:02:12.443Z,4196.00
2018-07-17T16:04:05.667Z,4112.00
2018-07-17T16:05:05.579Z,4068.00
2018-07-17T16:06:58.414Z,3680.00
2018-07-17T16:07:58.393Z,3336.00
2018-07-17T16:09:51.450Z,2680.00
2018-07-17T16:10:51.383Z,2444.00
2018-07-17T16:12:44.535Z,2056.00
2018-07-17T16:13:44.674Z,1896.00
2018-07-17T16:15:37.512Z,1852.00
2018-07-17T16:16:37.467Z,1900.00
2018-07-17T16:18:30.588Z,1932.00
2018-07-17T16:19:30.563Z,2020.00
2018-07-17T16:21:23.913Z,2212.00
2018-07-17T16:22:23.859Z,2328.00
2018-07-17T16:24:16.993Z,2536.00
2018-07-17T16:25:16.977Z,2488.00
2018-07-17T16:27:09.987Z,2088.00
2018-07-17T16:28:09.960Z,1816.00
2018-07-17T16:30:03.182Z,1496.00
2018-07-17T16:31:03.065Z,1404.00
2018-07-17T16:32:56.121Z,1260.00
2018-07-17T16:33:56.076Z,1196.00
2018-07-17T16:35:49.123Z,1152.00
2018-07-17T16:36:49.248Z,1128.00
2018-07-17T16:38:42.115Z,916.00
2018-07-17T16:39:42.083Z,764.00
2018-07-17T16:41:35.103Z,508.00
2018-07-17T16:42:35.118Z,420.00
2018-07-17T16:44:28.286Z,308.00
2018-07-17T16:45:28.184Z,280.00
2018-07-17T16:47:21.203Z,288.00
2018-07-17T16:48:21.145Z,300.00
2018-07-17T16:50:14.173Z,292.00
2018-07-17T16:51:14.120Z,308.00
2018-07-17T16:53:07.124Z,340.00
2018-07-17T16:54:07.029Z,356.00
2018-07-17T16:55:59.989Z,396.00
2018-07-17T16:56:59.955Z,412.00
2018-07-17T16:58:52.991Z,440.00
2018-07-17T16:59:52.954Z,444.00
2018-07-17T17:01:45.868Z,460.00
2018-07-17T17:02:45.841Z,456.00
2018-07-17T17:04:38.837Z,480.00
2018-07-17T17:05:38.789Z,512.00
2018-07-17T17:07:31.827Z,580.00
2018-07-17T17:08:31.765Z,608.00
2018-07-17T17:10:24.818Z,664.00
2018-07-17T17:11:24.785Z,680.00
2018-07-17T17:13:17.815Z,704.00
2018-07-17T17:14:17.745Z,724.00
2018-07-17T17:16:10.765Z,772.00
2018-07-17T17:17:10.730Z,800.00
2018-07-17T17:19:03.658Z,856.00
2018-07-17T17:20:03.562Z,884.00
2018-07-17T17:21:56.596Z,956.00
2018-07-17T17:22:56.543Z,1004.00
2018-07-17T17:24:49.561Z,1088.00
2018-07-17T17:25:49.496Z,1144.00
2018-07-17T17:27:42.443Z,1680.00
2018-07-17T17:28:42.401Z,2400.00
2018-07-17T17:30:35.260Z,1472.00
2018-07-17T17:31:35.191Z,1564.00
2018-07-17T17:33:28.199Z,1876.00
2018-07-17T17:34:28.164Z,3192.00
2018-07-17T17:36:21.369Z,3752.00
2018-07-17T17:37:21.282Z,4080.00
2018-07-17T17:39:14.295Z,3984.00
2018-07-17T17:40:14.242Z,2988.00
2018-07-17T17:42:07.064Z,3176.00
2018-07-17T17:43:07.037Z,3160.00
2018-07-17T17:45:00.301Z,3912.00